Time;durP1;ratioP1;P1;durP2;ratioP2;P2;SDS_P1;SDS_P2;PMS_P1;PMS_P2;Temp;Humidity;BMP_temperature;BMP_pressure;BME280_temperature;BME280_humidity;BME280_pressure;Samples;Min_cycle;Max_cycle;Signal;HPM_P1;HPM_P2
2021/12/03 00:02:22;;;;;;;77.97;35.38;;;;;;;1.62;100.00;100142.06;8356093;28;20064;-63
2021/12/03 00:06:23;;;;;;;83.43;37.17;;;;;;;1.41;100.00;100144.19;8338781;28;20444;-63
2021/12/03 00:10:26;;;;;;;79.53;35.17;;;;;;;1.50;100.00;100143.63;8339168;28;20410;-63
2021/12/03 00:14:27;;;;;;;79.78;36.92;;;;;;;1.45;100.00;100153.75;8342712;28;20093;-63
2021/12/03 00:18:28;;;;;;;77.70;35.35;;;;;;;1.52;100.00;100146.22;8344071;28;20033;-63
2021/12/03 00:22:29;;;;;;;77.13;33.33;;;;;;;1.88;100.00;100143.97;8329323;28;20034;-63
2021/12/03 00:26:29;;;;;;;69.75;32.60;;;;;;;2.00;100.00;100132.53;8343250;28;20179;-63
2021/12/03 00:30:30;;;;;;;72.40;33.55;;;;;;;2.13;100.00;100137.97;8342234;28;20112;-63
2021/12/03 00:34:31;;;;;;;68.18;31.50;;;;;;;2.13;100.00;100137.97;8335890;28;20470;-63
2021/12/03 00:38:37;;;;;;;65.55;29.35;;;;;;;2.08;100.00;100127.59;8340062;28;20416;-63
2021/12/03 00:42:39;;;;;;;58.28;27.50;;;;;;;2.13;100.00;100130.78;8344789;28;20038;-63
2021/12/03 00:46:40;;;;;;;64.43;25.48;;;;;;;2.37;100.00;100136.38;8342772;28;20342;-63
2021/12/03 00:50:41;;;;;;;56.42;25.83;;;;;;;2.45;100.00;100145.59;8341562;28;20041;-63
2021/12/03 00:54:42;;;;;;;59.50;26.45;;;;;;;2.45;100.00;100140.28;8342773;28;20120;-63
2021/12/03 00:58:42;;;;;;;63.05;27.30;;;;;;;2.39;100.00;100146.00;8344414;28;20075;-63
2021/12/03 01:02:43;;;;;;;57.17;25.08;;;;;;;2.36;100.00;100148.88;8375909;28;20052;-63
2021/12/03 01:06:44;;;;;;;51.80;23.70;;;;;;;2.37;100.00;100147.03;8344014;28;20037;-63
2021/12/03 01:10:44;;;;;;;54.35;24.75;;;;;;;2.39;100.00;100150.47;8375424;28;20044;-63
2021/12/03 01:14:45;;;;;;;52.05;24.08;;;;;;;2.40;100.00;100153.03;8344808;28;20056;-63
2021/12/03 01:18:46;;;;;;;58.05;24.45;;;;;;;2.35;100.00;100168.47;8376915;28;20037;-63
2021/12/03 01:22:49;;;;;;;57.50;25.08;;;;;;;2.33;100.00;100162.41;8331515;28;20050;-63
2021/12/03 01:26:54;;;;;;;54.63;24.42;;;;;;;2.34;100.00;100164.09;8308318;28;20054;-63
2021/12/03 01:30:57;;;;;;;53.78;24.77;;;;;;;2.35;100.00;100157.81;8339029;28;20037;-63
2021/12/03 01:34:57;;;;;;;56.47;26.05;;;;;;;2.39;100.00;100162.00;8324851;28;20041;-63
2021/12/03 01:38:58;;;;;;;62.70;25.67;;;;;;;2.42;100.00;100169.81;8318346;28;20060;-63
2021/12/03 01:42:58;;;;;;;56.25;25.10;;;;;;;2.46;100.00;100174.00;8331757;28;20441;-63
2021/12/03 01:46:59;;;;;;;57.92;24.75;;;;;;;2.44;100.00;100172.38;8308588;28;20053;-63
2021/12/03 01:51:00;;;;;;;55.47;22.75;;;;;;;2.40;100.00;100174.38;8342410;28;20038;-61
2021/12/03 01:55:02;;;;;;;50.10;22.88;;;;;;;2.48;100.00;100166.75;8308797;28;20414;-61
2021/12/03 01:59:03;;;;;;;62.15;23.98;;;;;;;2.50;100.00;100178.16;8315500;28;20041;-62
2021/12/03 02:03:06;;;;;;;55.28;22.15;;;;;;;2.47;100.00;100181.03;8339466;28;20044;-62
2021/12/03 02:07:07;;;;;;;51.10;22.27;;;;;;;2.58;100.00;100189.22;8340847;28;20521;-62
2021/12/03 02:11:10;;;;;;;59.80;23.42;;;;;;;2.76;100.00;100190.69;8329365;28;20049;-62
2021/12/03 02:15:11;;;;;;;53.13;24.90;;;;;;;2.86;100.00;100189.13;8308155;28;20026;-62
2021/12/03 02:19:13;;;;;;;52.72;22.50;;;;;;;3.08;100.00;100183.25;8308484;28;20034;-62
2021/12/03 02:23:15;;;;;;;55.67;21.52;;;;;;;3.21;100.00;100182.31;8305821;28;20083;-62
2021/12/03 02:27:15;;;;;;;45.80;20.08;;;;;;;3.41;100.00;100184.50;8307516;28;20247;-62
2021/12/03 02:31:19;;;;;;;45.83;19.83;;;;;;;3.49;100.00;100181.31;8315685;28;20044;-62
2021/12/03 02:35:23;;;;;;;41.07;17.97;;;;;;;3.60;100.00;100182.28;8337954;28;20452;-62
2021/12/03 02:39:23;;;;;;;43.87;18.10;;;;;;;3.62;100.00;100176.81;8337342;28;20382;-62
2021/12/03 02:43:25;;;;;;;38.33;18.38;;;;;;;3.66;100.00;100173.00;8336877;28;20037;-62
2021/12/03 02:47:25;;;;;;;37.38;17.30;;;;;;;3.66;100.00;100165.81;8337986;28;20041;-62
2021/12/03 02:51:26;;;;;;;40.03;17.45;;;;;;;3.74;100.00;100168.81;8317723;28;20041;-62
2021/12/03 02:55:27;;;;;;;35.50;17.95;;;;;;;3.74;100.00;100163.47;8338576;28;20060;-62
2021/12/03 02:59:27;;;;;;;37.35;16.55;;;;;;;3.68;100.00;100163.91;8337053;28;20086;-62
2021/12/03 03:03:28;;;;;;;32.90;16.17;;;;;;;3.73;100.00;100171.59;8338113;28;20227;-62
2021/12/03 03:07:30;;;;;;;30.30;15.10;;;;;;;3.73;100.00;100167.09;8338220;28;20075;-62
2021/12/03 03:11:30;;;;;;;31.80;15.15;;;;;;;3.63;100.00;100166.03;8337097;28;20101;-62
2021/12/03 03:15:31;;;;;;;33.92;15.98;;;;;;;3.66;100.00;100175.66;8337893;28;20032;-62
2021/12/03 03:19:31;;;;;;;34.35;16.05;;;;;;;3.61;100.00;100178.66;8337993;28;20038;-62
2021/12/03 03:23:33;;;;;;;36.50;16.58;;;;;;;3.53;100.00;100181.00;8338431;28;20045;-62
2021/12/03 03:27:35;;;;;;;33.08;16.15;;;;;;;3.49;100.00;100184.84;8335743;28;20037;-62
2021/12/03 03:31:37;;;;;;;36.35;16.70;;;;;;;3.41;100.00;100187.16;8338972;28;20048;-62
2021/12/03 03:35:38;;;;;;;31.10;14.80;;;;;;;3.38;100.00;100189.16;8337387;28;20037;-62
2021/12/03 03:39:38;;;;;;;32.15;15.07;;;;;;;3.44;100.00;100178.06;8327026;28;20041;-62
2021/12/03 03:43:39;;;;;;;30.60;12.90;;;;;;;3.46;100.00;100165.47;8315384;28;20034;-62
2021/12/03 03:47:40;;;;;;;27.10;13.23;;;;;;;3.44;100.00;100165.59;8306345;28;20057;-62
2021/12/03 03:51:40;;;;;;;28.67;12.63;;;;;;;3.45;100.00;100169.97;8310666;28;20406;-62
2021/12/03 03:55:41;;;;;;;26.02;11.57;;;;;;;3.48;100.00;100156.38;8323915;28;20037;-62
2021/12/03 03:59:42;;;;;;;27.75;11.18;;;;;;;3.49;100.00;100146.56;8310090;28;20060;-62
2021/12/03 04:03:46;;;;;;;25.40;12.00;;;;;;;3.54;100.00;100153.28;8355489;28;20057;-62
2021/12/03 04:07:46;;;;;;;32.45;12.88;;;;;;;3.61;100.00;100164.44;8336227;28;20041;-62
2021/12/03 04:11:47;;;;;;;33.30;15.15;;;;;;;3.77;100.00;100152.56;8345019;28;20037;-63
2021/12/03 04:15:48;;;;;;;38.13;15.10;;;;;;;3.90;100.00;100158.78;8343227;28;20037;-63
2021/12/03 04:19:48;;;;;;;39.30;15.50;;;;;;;3.88;100.00;100144.63;8342014;28;20109;-63
2021/12/03 04:23:49;;;;;;;32.55;13.80;;;;;;;3.94;100.00;100146.88;8342292;28;20041;-63
2021/12/03 04:27:51;;;;;;;34.60;15.02;;;;;;;3.94;100.00;100138.84;8339913;28;20504;-63
2021/12/03 04:31:51;;;;;;;36.75;15.07;;;;;;;3.94;100.00;100146.88;8312367;28;20046;-63
2021/12/03 04:35:52;;;;;;;37.22;14.10;;;;;;;4.00;100.00;100132.25;8334594;28;20052;-63
2021/12/03 04:39:52;;;;;;;33.45;13.98;;;;;;;4.09;100.00;100143.13;8336159;28;20045;-63
2021/12/03 04:43:53;;;;;;;31.70;13.90;;;;;;;4.20;100.00;100136.19;8309266;28;20086;-63
2021/12/03 04:47:55;;;;;;;31.15;11.80;;;;;;;4.24;100.00;100129.63;8329401;28;20049;-63
2021/12/03 04:51:56;;;;;;;25.25;12.00;;;;;;;4.32;100.00;100137.94;8332207;28;20038;-63
2021/12/03 04:55:56;;;;;;;28.08;11.65;;;;;;;4.29;100.00;100132.81;8341930;28;20095;-63
2021/12/03 04:59:57;;;;;;;25.33;11.40;;;;;;;4.28;100.00;100131.13;8342950;28;20041;-63
2021/12/03 05:03:57;;;;;;;23.88;9.93;;;;;;;4.33;100.00;100134.31;8335681;28;20080;-63
2021/12/03 05:08:07;;;;;;;24.95;10.27;;;;;;;4.32;100.00;100127.25;8337391;28;20034;-63
2021/12/03 05:12:08;;;;;;;17.42;9.30;;;;;;;4.30;100.00;100134.53;8324790;28;20041;-63
2021/12/03 05:16:08;;;;;;;16.40;8.55;;;;;;;4.28;100.00;100134.66;8332847;28;20048;-63
2021/12/03 05:20:09;;;;;;;23.65;9.20;;;;;;;4.25;100.00;100137.53;8342115;28;20089;-63
2021/12/03 05:24:11;;;;;;;17.73;8.82;;;;;;;4.26;100.00;100154.44;8326553;28;20064;-63
2021/12/03 05:28:12;;;;;;;26.48;8.95;;;;;;;4.32;100.00;100148.66;8316543;28;20488;-63
2021/12/03 05:32:13;;;;;;;23.42;9.45;;;;;;;4.33;100.00;100142.34;8344424;28;20059;-63
2021/12/03 05:36:13;;;;;;;19.67;8.52;;;;;;;4.36;100.00;100147.47;8341595;28;20032;-63
2021/12/03 05:40:15;;;;;;;19.10;8.20;;;;;;;4.39;100.00;100140.06;8337250;28;20057;-63
2021/12/03 05:44:15;;;;;;;23.33;9.63;;;;;;;4.38;100.00;100142.84;8323310;28;20045;-63
2021/12/03 05:48:16;;;;;;;24.92;9.35;;;;;;;4.39;100.00;100155.28;8309570;28;20034;-63
2021/12/03 05:52:17;;;;;;;27.65;9.50;;;;;;;4.39;100.00;100148.09;8308779;28;20041;-63
2021/12/03 05:56:17;;;;;;;25.65;10.07;;;;;;;4.39;100.00;100161.47;8309062;28;20030;-63
2021/12/03 06:00:23;;;;;;;26.90;10.23;;;;;;;4.37;100.00;100151.84;8324706;28;20034;-63
2021/12/03 06:04:23;;;;;;;31.92;10.75;;;;;;;4.33;100.00;100145.03;8327833;28;20109;-63
2021/12/03 06:08:23;;;;;;;28.42;11.68;;;;;;;4.34;100.00;100152.06;8333949;28;20520;-63
2021/12/03 06:12:24;;;;;;;28.70;11.23;;;;;;;4.35;100.00;100143.06;8332355;28;20246;-63
2021/12/03 06:16:24;;;;;;;37.58;12.27;;;;;;;4.38;100.00;100153.56;8341340;28;20035;-63
2021/12/03 06:20:25;;;;;;;30.27;11.52;;;;;;;4.42;100.00;100155.06;8321901;28;20044;-63
2021/12/03 06:24:26;;;;;;;32.15;11.40;;;;;;;4.46;100.00;100153.88;8319421;28;20037;-63
2021/12/03 06:28:28;;;;;;;39.78;11.82;;;;;;;4.53;100.00;100152.44;8305505;28;20068;-63
2021/12/03 06:32:29;;;;;;;35.55;11.75;;;;;;;4.54;100.00;100154.19;8322770;28;20064;-63
2021/12/03 06:36:29;;;;;;;31.58;10.95;;;;;;;4.48;100.00;100154.63;8369245;28;20092;-63
2021/12/03 06:40:29;;;;;;;26.25;10.85;;;;;;;4.44;100.00;100166.50;8339206;28;20045;-63
2021/12/03 06:44:30;;;;;;;29.15;10.48;;;;;;;4.37;100.00;100155.41;8328692;28;20037;-60
2021/12/03 06:48:31;;;;;;;22.90;9.70;;;;;;;4.39;100.00;100166.00;8319568;28;20056;-61
2021/12/03 06:52:33;;;;;;;26.55;10.02;;;;;;;4.32;100.00;100165.56;8363392;28;20052;-63
2021/12/03 06:56:44;;;;;;;27.67;10.90;;;;;;;4.22;100.00;100163.66;8334747;28;20884;-63
2021/12/03 07:00:46;;;;;;;30.40;8.93;;;;;;;4.10;100.00;100165.38;8331896;28;20248;-63
2021/12/03 07:04:47;;;;;;;31.35;10.73;;;;;;;4.02;100.00;100163.25;8333774;28;20095;-63
2021/12/03 07:08:47;;;;;;;30.25;10.43;;;;;;;4.07;100.00;100171.81;8334261;28;20095;-63
2021/12/03 07:12:48;;;;;;;27.80;9.57;;;;;;;4.08;100.00;100168.16;8334331;28;20041;-63
2021/12/03 07:16:48;;;;;;;18.73;9.57;;;;;;;4.13;99.90;100166.97;8334649;28;20117;-63
2021/12/03 07:20:48;;;;;;;22.88;9.57;;;;;;;4.15;99.51;100178.44;8331240;28;20041;-63
2021/12/03 07:24:49;;;;;;;24.58;7.85;;;;;;;4.14;99.42;100166.88;8334970;28;20042;-63
2021/12/03 07:28:51;;;;;;;20.23;7.18;;;;;;;4.19;98.69;100158.53;8334398;28;20476;-63
2021/12/03 07:32:51;;;;;;;16.08;5.90;;;;;;;4.16;98.25;100153.38;8334378;28;20041;-63
2021/12/03 07:36:51;;;;;;;21.98;6.30;;;;;;;4.04;98.33;100156.00;8333368;28;20037;-63
2021/12/03 07:40:52;;;;;;;12.98;6.90;;;;;;;4.05;98.30;100156.81;8334395;28;20486;-63
2021/12/03 07:44:52;;;;;;;20.17;7.13;;;;;;;4.10;97.78;100162.72;8337117;28;20048;-63
2021/12/03 07:48:53;;;;;;;19.48;6.70;;;;;;;4.04;97.23;100166.69;8334509;28;20037;-63
2021/12/03 07:52:53;;;;;;;14.05;4.85;;;;;;;4.03;97.50;100167.63;8336341;28;20064;-63
2021/12/03 07:56:54;;;;;;;14.90;4.68;;;;;;;3.99;96.27;100166.16;8334247;28;20509;-63
2021/12/03 08:00:54;;;;;;;14.30;3.88;;;;;;;3.97;94.57;100156.53;8334631;28;20521;-63
2021/12/03 08:04:55;;;;;;;25.70;4.07;;;;;;;4.02;94.40;100157.91;8333694;28;20552;-63
2021/12/03 08:08:55;;;;;;;16.63;3.83;;;;;;;4.09;93.27;100156.50;8334599;28;20465;-63
2021/12/03 08:12:56;;;;;;;9.13;2.90;;;;;;;4.25;93.00;100163.44;8334177;28;20095;-63
2021/12/03 08:16:56;;;;;;;13.77;3.63;;;;;;;4.29;91.79;100159.56;8333660;28;20052;-63
2021/12/03 08:20:56;;;;;;;14.45;4.13;;;;;;;4.29;92.92;100154.22;8335716;28;20042;-63
2021/12/03 08:24:57;;;;;;;10.23;2.88;;;;;;;4.29;91.29;100159.56;8335605;28;20041;-63
2021/12/03 08:28:57;;;;;;;18.48;3.80;;;;;;;4.40;89.96;100171.22;8336139;28;20037;-63
2021/12/03 08:32:58;;;;;;;9.05;2.95;;;;;;;4.48;89.27;100174.19;8335297;28;20053;-63
2021/12/03 08:36:59;;;;;;;11.90;3.20;;;;;;;4.58;89.00;100161.00;8341376;28;20057;-63
2021/12/03 08:40:59;;;;;;;15.30;3.15;;;;;;;4.67;88.40;100165.69;8339310;28;20037;-63
2021/12/03 08:45:00;;;;;;;15.75;3.38;;;;;;;4.74;87.79;100164.25;8339791;28;20060;-63
2021/12/03 08:49:12;;;;;;;10.38;2.40;;;;;;;4.77;88.15;100161.38;8337993;28;20053;-63
2021/12/03 08:57:35;;;;;;;14.32;3.00;;;;;;;4.83;87.78;100152.88;8337801;28;20582;-63
2021/12/03 09:01:35;;;;;;;21.70;7.47;;;;;;;4.89;88.18;100155.97;8336235;28;20038;-63
2021/12/03 09:05:37;;;;;;;6.95;2.55;;;;;;;5.06;86.31;100146.69;8338392;28;20029;-63
2021/12/03 09:09:37;;;;;;;11.77;2.72;;;;;;;5.23;85.63;100148.94;8338324;28;20041;-63
2021/12/03 09:13:39;;;;;;;19.48;3.03;;;;;;;5.56;84.53;100146.34;8343161;28;20033;-63
2021/12/03 09:22:01;;;;;;;12.77;3.28;;;;;;;5.76;81.91;100142.97;8342328;28;20045;-63
2021/12/03 09:26:07;;;;;;;19.40;3.05;;;;;;;5.58;83.83;100160.50;8342093;28;20052;-63
2021/12/03 09:30:10;;;;;;;7.78;2.28;;;;;;;5.54;82.41;100148.28;8341848;28;20584;-63
2021/12/03 09:34:14;;;;;;;7.88;2.05;;;;;;;5.50;83.24;100117.34;8340485;28;20060;-63
2021/12/03 09:38:15;;;;;;;12.02;2.00;;;;;;;5.50;82.83;100130.75;8343795;28;20037;-63
2021/12/03 09:42:18;;;;;;;12.30;3.40;;;;;;;5.48;83.29;100117.47;8371265;28;20037;-63
2021/12/03 09:46:23;;;;;;;8.45;2.70;;;;;;;5.52;82.31;100113.56;8373631;28;20048;-63
2021/12/03 09:50:23;;;;;;;10.38;2.63;;;;;;;5.48;83.75;100121.97;8374227;28;20093;-63
2021/12/03 09:54:27;;;;;;;9.40;2.42;;;;;;;5.48;83.82;100119.28;8375095;28;20033;-63
2021/12/03 09:58:56;;;;;;;14.07;3.17;;;;;;;5.47;84.52;100120.25;8372569;28;20040;-63
2021/12/03 10:03:40;;;;;;;12.32;3.47;;;;;;;5.53;84.82;100125.16;8371055;28;20298;-63
2021/12/03 10:16:02;;;;;;;11.85;3.13;;;;;;;5.67;84.23;100114.19;8373668;27;20911;-63
2021/12/03 10:29:32;;;;;;;16.15;3.15;;;;;;;5.89;83.98;100090.97;8431421;27;20395;-63
2021/12/03 10:42:20;;;;;;;11.30;3.30;;;;;;;5.92;82.45;100084.53;8430365;27;20784;-62
2021/12/03 10:47:04;;;;;;;11.15;4.10;;;;;;;5.95;82.09;100078.91;8413709;28;20040;-62
2021/12/03 10:50:51;;;;;;;16.10;6.80;;;;;;;5.99;82.29;100072.31;8429549;28;20052;-62
2021/12/03 10:55:14;;;;;;;8.05;2.75;;;;;;;5.98;81.77;100058.03;8410504;28;20032;-62
2021/12/03 11:47:55;;;;;;;6.03;3.25;;;;;;;6.14;81.69;99981.66;8410452;28;20134;-64
2021/12/03 12:06:55;;;;;;;8.60;3.42;;;;;;;6.30;81.58;99956.13;8385460;28;20138;-63
2021/12/03 12:18:48;;;;;;;7.70;2.78;;;;;;;6.47;80.89;99920.69;8301690;28;20435;-64
2021/12/03 12:28:48;;;;;;;6.93;2.70;;;;;;;6.47;80.92;99930.56;8327041;28;20032;-64
2021/12/03 12:36:05;;;;;;;13.25;2.88;;;;;;;6.50;80.62;99925.78;8327237;28;20048;-62
2021/12/03 12:45:09;;;;;;;6.72;2.58;;;;;;;6.55;79.98;99902.06;8319311;28;20030;-64
2021/12/03 12:58:54;;;;;;;5.82;2.20;;;;;;;6.62;81.39;99871.03;8314452;28;19921;-62
2021/12/03 13:07:42;;;;;;;3.22;2.20;;;;;;;6.61;79.09;99845.16;8281720;28;20050;-62
2021/12/03 13:29:47;;;;;;;5.43;2.80;;;;;;;6.60;79.89;99850.66;8405419;28;20078;-63
2021/12/03 13:33:39;;;;;;;6.03;2.33;;;;;;;6.60;80.04;99840.78;8398733;28;20041;-63
2021/12/03 13:59:30;;;;;;;7.38;2.33;;;;;;;6.46;79.59;99789.25;8386851;27;20105;-63
2021/12/03 14:04:49;;;;;;;5.57;2.25;;;;;;;6.47;79.29;99783.75;8381350;27;20037;-63
2021/12/03 14:07:46;;;;;;;4.38;2.25;;;;;;;6.54;79.15;99776.88;8361498;28;20088;-63
2021/12/03 14:19:08;;;;;;;5.28;2.10;;;;;;;6.49;78.96;99765.66;8363718;28;20041;-63
2021/12/03 14:23:12;;;;;;;8.20;2.60;;;;;;;6.48;79.68;99763.97;8355334;28;20034;-63
2021/12/03 14:38:16;;;;;;;4.88;2.42;;;;;;;6.39;80.46;99745.13;8372929;28;20094;-63
2021/12/03 14:42:58;;;;;;;5.88;2.33;;;;;;;6.35;81.35;99736.50;8362548;28;20516;-63
2021/12/03 14:51:12;;;;;;;12.15;2.75;;;;;;;6.37;79.95;99742.56;8366698;28;20485;-63
2021/12/03 14:55:25;;;;;;;5.65;2.42;;;;;;;6.35;80.52;99739.19;8351760;28;20033;-63
2021/12/03 14:59:30;;;;;;;5.22;1.77;;;;;;;6.34;79.71;99726.72;8357388;28;20065;-63
2021/12/03 15:04:57;;;;;;;6.95;2.38;;;;;;;6.35;80.17;99712.34;8364092;28;20041;-63
2021/12/03 15:07:54;;;;;;;;;;;;;;;6.34;80.21;99721.38;8313928;28;20061;-63
2021/12/03 15:21:00;;;;;;;3.63;1.73;;;;;;;6.29;80.30;99693.22;8212893;28;20035;-87
2021/12/03 15:25:04;;;;;;;5.47;1.92;;;;;;;6.43;80.13;99720.56;8208437;28;20423;-87
2021/12/03 15:33:49;;;;;;;4.38;1.85;;;;;;;6.36;80.80;99714.03;8194463;28;20045;-86
2021/12/03 15:38:54;;;;;;;6.97;2.50;;;;;;;6.38;81.00;99724.63;8201114;28;20495;-86
2021/12/03 15:55:49;;;;;;;10.02;2.78;;;;;;;6.34;82.27;99686.47;8219717;28;20073;-87
2021/12/03 16:03:56;;;;;;;7.07;2.10;;;;;;;6.39;82.86;99667.28;8197844;28;20042;-87
2021/12/03 16:08:17;;;;;;;7.18;3.15;;;;;;;6.33;83.23;99649.88;8190709;28;20039;-87
2021/12/03 16:12:34;;;;;;;7.97;1.77;;;;;;;6.39;83.13;99649.34;8204209;28;20372;-87
2021/12/03 16:18:06;;;;;;;4.07;1.63;;;;;;;6.39;83.21;99643.97;8195762;28;20039;-87
2021/12/03 16:21:26;;;;;;;2.72;1.40;;;;;;;6.36;83.21;99638.88;8213098;28;20065;-87
2021/12/03 16:43:48;;;;;;;2.65;1.30;;;;;;;6.21;85.84;99629.50;8220290;28;20132;-87
2021/12/03 16:47:11;;;;;;;4.00;1.52;;;;;;;6.22;85.96;99625.81;8209169;28;20030;-87
2021/12/03 16:51:24;;;;;;;3.17;1.98;;;;;;;6.25;86.47;99633.59;8185905;28;20034;-87
2021/12/03 16:55:24;;;;;;;4.30;1.60;;;;;;;6.23;86.63;99616.81;8222544;28;20464;-87
2021/12/03 16:59:25;;;;;;;2.90;1.70;;;;;;;6.30;85.83;99617.09;8206182;28;20050;-87
2021/12/03 17:03:32;;;;;;;5.20;2.33;;;;;;;6.35;85.51;99598.75;8198457;28;20035;-87
2021/12/03 17:26:17;;;;;;;5.53;2.10;;;;;;;6.27;87.82;99607.50;8353253;28;20102;-61
2021/12/03 17:30:28;;;;;;;3.78;2.35;;;;;;;6.38;87.29;99601.16;8328922;28;20516;-61
2021/12/03 17:50:46;;;;;;;6.32;1.83;;;;;;;6.52;86.24;99590.88;8376348;27;20818;-62
2021/12/03 17:59:17;;;;;;;2.70;1.17;;;;;;;6.52;85.76;99566.72;8352123;28;20152;-62
2021/12/03 18:03:42;;;;;;;2.67;1.50;;;;;;;6.51;85.96;99551.63;8382494;28;20067;-61
2021/12/03 18:13:18;;;;;;;2.38;1.00;;;;;;;6.50;85.47;99531.13;8362383;28;21103;-62
2021/12/03 18:51:10;;;;;;;1.75;0.80;;;;;;;6.60;84.96;99469.38;8340465;28;20056;-62
2021/12/03 18:55:15;;;;;;;1.05;0.70;;;;;;;6.62;84.92;99465.53;8355115;28;20110;-62
2021/12/03 18:59:16;;;;;;;0.75;0.73;;;;;;;6.56;85.51;99458.06;8345595;28;20060;-62
2021/12/03 19:07:42;;;;;;;1.25;0.70;;;;;;;6.62;85.02;99452.13;8405754;27;20476;-61
2021/12/03 19:11:54;;;;;;;1.45;0.70;;;;;;;6.56;85.84;99450.00;8404841;27;20063;-61
2021/12/03 19:15:56;;;;;;;1.63;0.50;;;;;;;6.59;85.45;99449.72;8409548;27;20033;-61
2021/12/03 19:20:00;;;;;;;1.60;0.68;;;;;;;6.57;85.79;99446.34;8419446;27;20522;-61
2021/12/03 19:24:01;;;;;;;1.35;0.80;;;;;;;6.56;85.37;99446.50;8421005;27;20051;-61
2021/12/03 19:28:02;;;;;;;1.63;0.85;;;;;;;6.58;85.51;99456.09;8421202;27;20062;-62
2021/12/03 19:32:03;;;;;;;2.63;1.10;;;;;;;6.53;86.06;99442.25;8395549;27;20041;-62
2021/12/03 19:36:04;;;;;;;2.92;1.38;;;;;;;6.61;85.33;99433.47;8399512;27;20045;-61
2021/12/03 19:40:10;;;;;;;0.63;0.50;;;;;;;6.61;85.54;99433.47;8400200;27;20058;-61
2021/12/03 19:44:14;;;;;;;0.68;0.43;;;;;;;6.63;85.23;99426.97;8417480;27;20047;-62
2021/12/03 19:48:15;;;;;;;0.73;0.52;;;;;;;6.62;84.63;99408.34;8351102;28;20052;-62
2021/12/03 19:52:25;;;;;;;0.40;0.38;;;;;;;6.59;85.06;99420.19;8345647;28;20045;-62
2021/12/03 19:56:29;;;;;;;0.85;0.60;;;;;;;6.53;85.35;99404.69;8380451;28;20041;-61
2021/12/03 20:00:29;;;;;;;0.50;0.50;;;;;;;6.67;84.06;99390.78;8349607;28;20029;-62
2021/12/03 20:04:30;;;;;;;0.43;0.40;;;;;;;6.61;84.47;99360.97;8350904;28;20373;-61
2021/12/03 20:08:30;;;;;;;2.10;0.60;;;;;;;6.66;84.49;99372.13;8362264;28;20041;-62
2021/12/03 20:12:33;;;;;;;0.57;0.50;;;;;;;6.60;84.95;99373.56;8343513;28;20500;-61
2021/12/03 20:16:39;;;;;;;1.33;0.55;;;;;;;6.50;84.97;99369.19;8335934;28;20432;-61
2021/12/03 20:20:41;;;;;;;0.50;0.50;;;;;;;6.58;84.64;99370.16;8360364;28;20048;-62
2021/12/03 20:25:20;;;;;;;0.85;0.40;;;;;;;6.54;85.02;99374.16;8343864;28;20045;-61
2021/12/03 20:29:12;;;;;;;0.50;0.30;;;;;;;6.50;85.56;99356.63;8344611;28;20589;-62
2021/12/03 20:33:40;;;;;;;0.45;0.40;;;;;;;6.48;86.72;99363.97;8325003;28;20044;-62
2021/12/03 20:37:38;;;;;;;0.50;0.40;;;;;;;6.55;85.81;99366.91;8336706;28;20155;-62
2021/12/03 20:42:01;;;;;;;0.57;0.30;;;;;;;6.48;86.46;99355.91;8364225;28;20043;-62
2021/12/03 20:46:18;;;;;;;1.17;0.40;;;;;;;6.52;85.95;99353.81;8321289;28;20330;-62
2021/12/03 20:51:34;;;;;;;0.50;0.30;;;;;;;6.51;85.83;99358.31;8310902;28;20045;-62
2021/12/03 21:11:59;;;;;;;0.45;0.38;;;;;;;6.59;86.55;99345.00;8320984;28;20037;-62
2021/12/03 21:16:12;;;;;;;2.33;0.50;;;;;;;6.58;86.58;99348.69;8331420;28;20041;-62
2021/12/03 21:20:25;;;;;;;0.52;0.47;;;;;;;6.57;87.02;99328.22;8338129;28;20037;-62
2021/12/03 21:24:33;;;;;;;0.40;0.40;;;;;;;6.62;86.56;99320.56;8350607;28;20041;-62
2021/12/03 21:28:43;;;;;;;0.50;0.40;;;;;;;6.61;86.71;99315.31;8351920;28;20041;-62
2021/12/03 21:38:45;;;;;;;1.55;0.30;;;;;;;6.67;86.84;99299.50;8421356;27;20469;-61
2021/12/03 21:41:20;;;;;;;0.40;0.30;;;;;;;6.65;86.78;99296.09;8411722;28;20051;-62
2021/12/03 21:45:21;;;;;;;0.47;0.30;;;;;;;6.66;86.75;99286.22;8419268;28;20071;-62
2021/12/03 21:49:23;;;;;;;0.38;0.22;;;;;;;6.67;86.79;99288.75;8418941;28;20048;-61
2021/12/03 21:53:23;;;;;;;0.45;0.40;;;;;;;6.71;86.63;99284.78;8378311;28;20041;-62
2021/12/03 21:57:26;;;;;;;0.20;0.20;;;;;;;6.73;86.61;99281.94;8388304;28;20041;-61
2021/12/03 22:01:27;;;;;;;0.20;0.20;;;;;;;6.58;86.73;99273.53;8373055;28;20060;-61
2021/12/03 22:05:28;;;;;;;0.60;0.43;;;;;;;6.73;86.53;99266.69;8368908;28;20038;-61
2021/12/03 22:09:28;;;;;;;0.40;0.32;;;;;;;6.66;87.30;99256.69;8378456;28;20029;-61
2021/12/03 22:13:28;;;;;;;0.60;0.30;;;;;;;6.64;87.48;99246.09;8396544;28;20033;-62
2021/12/03 22:17:29;;;;;;;1.60;0.35;;;;;;;6.64;87.82;99240.72;8371525;28;20056;-61
2021/12/03 22:21:29;;;;;;;0.35;0.30;;;;;;;6.67;88.07;99237.72;8382255;28;20043;-61
2021/12/03 22:25:30;;;;;;;0.20;0.20;;;;;;;6.74;87.87;99228.09;8402841;28;20365;-61
2021/12/03 22:29:31;;;;;;;0.40;0.40;;;;;;;6.73;88.08;99228.22;8401756;28;20045;-61
2021/12/03 22:33:31;;;;;;;0.88;0.30;;;;;;;6.74;88.29;99236.16;8375421;28;20575;-62
2021/12/03 22:37:31;;;;;;;0.30;0.30;;;;;;;6.77;88.10;99229.66;8365504;28;20045;-61
2021/12/03 22:41:32;;;;;;;1.00;0.20;;;;;;;6.66;88.28;99230.69;8352378;28;20048;-61
2021/12/03 22:45:57;;;;;;;0.45;0.45;;;;;;;6.60;89.48;99223.22;8346277;28;20384;-61
2021/12/03 22:50:14;;;;;;;0.55;0.50;;;;;;;6.67;89.49;99234.19;8329873;28;20056;-62
2021/12/03 22:54:13;;;;;;;0.70;0.50;;;;;;;6.63;90.11;99228.28;8331853;28;20038;-62
2021/12/03 22:58:13;;;;;;;1.27;0.65;;;;;;;6.55;91.64;99220.13;8339521;28;20076;-61
2021/12/03 23:02:16;;;;;;;0.55;0.43;;;;;;;6.50;91.91;99216.19;8346630;28;20052;-61
2021/12/03 23:06:18;;;;;;;0.47;0.40;;;;;;;6.51;92.51;99208.00;8348416;28;20039;-61
2021/12/03 23:10:18;;;;;;;0.50;0.50;;;;;;;6.54;92.57;99201.47;8348847;28;20039;-62
2021/12/03 23:14:18;;;;;;;0.95;0.70;;;;;;;6.55;92.34;99198.63;8348847;28;20484;-61
2021/12/03 23:18:19;;;;;;;1.60;0.60;;;;;;;6.56;92.56;99202.19;8325243;28;20381;-62
2021/12/03 23:22:20;;;;;;;0.40;0.40;;;;;;;6.61;91.82;99203.41;8347872;28;20098;-61
2021/12/03 23:26:20;;;;;;;0.93;0.40;;;;;;;6.57;92.18;99191.28;8347299;28;20440;-62
2021/12/03 23:30:21;;;;;;;0.47;0.30;;;;;;;6.50;92.70;99171.41;8346782;28;20068;-61
2021/12/03 23:34:23;;;;;;;6.00;0.85;;;;;;;6.43;93.69;99162.25;8332927;28;20044;-61
2021/12/03 23:38:24;;;;;;;0.40;0.40;;;;;;;6.45;93.85;99162.94;8363740;28;20045;-61
2021/12/03 23:42:25;;;;;;;1.08;0.52;;;;;;;6.46;93.63;99150.38;8347601;28;20048;-62
2021/12/03 23:46:26;;;;;;;0.65;0.60;;;;;;;6.48;93.71;99143.88;8349200;28;20037;-62
2021/12/03 23:50:26;;;;;;;0.75;0.52;;;;;;;6.55;93.14;99134.22;8348374;28;20029;-62
2021/12/03 23:54:32;;;;;;;0.88;0.38;;;;;;;6.54;93.11;99137.03;8346386;28;20400;-61
2021/12/03 23:58:35;;;;;;;1.40;0.50;;;;;;;6.51;93.56;99122.09;8342185;28;20048;-61
